Time;durP1;ratioP1;P1;durP2;ratioP2;P2;SDS_P1;SDS_P2;PMS_P1;PMS_P2;Temp;Humidity;BMP_temperature;BMP_pressure;BME280_temperature;BME280_humidity;BME280_pressure;Samples;Min_cycle;Max_cycle;Signal;HPM_P1;HPM_P2
2022/10/02 00:00:15;;;;;;;0.50;0.50;;;16.90;98.50;;;;;;5046510;28;20184;-74
2022/10/02 00:02:50;;;;;;;0.50;0.50;;;16.80;98.50;;;;;;5048283;28;20198;-73
2022/10/02 00:05:37;;;;;;;1.55;0.40;;;16.90;98.50;;;;;;5048485;28;20214;-73
2022/10/02 00:08:11;;;;;;;0.50;0.50;;;16.90;98.50;;;;;;5051282;28;20183;-73
2022/10/02 00:10:52;;;;;;;0.65;0.35;;;16.80;98.50;;;;;;5047431;28;20872;-72
2022/10/02 00:13:39;;;;;;;0.52;0.35;;;16.80;98.50;;;;;;5050787;28;20243;-74
2022/10/02 00:16:09;;;;;;;0.75;0.30;;;16.90;98.50;;;;;;5047283;28;20363;-74
2022/10/02 00:18:37;;;;;;;0.30;0.30;;;16.80;98.50;;;;;;5049849;28;20233;-74
2022/10/02 00:21:39;;;;;;;0.90;0.30;;;16.80;98.50;;;;;;5047032;28;20214;-73
2022/10/02 00:24:10;;;;;;;0.30;0.30;;;16.90;98.50;;;;;;5049983;28;20340;-73
2022/10/02 00:27:02;;;;;;;1.55;0.40;;;16.90;98.50;;;;;;5049555;28;20197;-73
2022/10/02 00:29:51;;;;;;;0.70;0.70;;;16.80;98.50;;;;;;5044709;28;21942;-73
2022/10/02 00:32:40;;;;;;;1.15;0.65;;;16.80;98.50;;;;;;5045694;28;20188;-73
2022/10/02 00:35:21;;;;;;;0.60;0.60;;;16.80;98.50;;;;;;5044609;28;20214;-72
2022/10/02 00:38:07;;;;;;;1.52;0.70;;;16.70;98.50;;;;;;5047866;28;20187;-72
2022/10/02 00:40:57;;;;;;;1.80;0.60;;;16.70;98.50;;;;;;5043658;28;20192;-72
2022/10/02 00:43:43;;;;;;;2.15;0.63;;;16.80;98.50;;;;;;5053473;28;20591;-72
2022/10/02 00:46:35;;;;;;;0.40;0.40;;;16.70;98.50;;;;;;5000591;28;20279;-72
2022/10/02 00:49:21;;;;;;;0.60;0.60;;;16.70;98.50;;;;;;4931911;28;20206;-72
2022/10/02 00:52:31;;;;;;;0.73;0.73;;;16.70;98.50;;;;;;4934148;28;20987;-72
2022/10/02 00:55:48;;;;;;;2.05;0.60;;;16.80;98.50;;;;;;4941946;28;20291;-72
2022/10/02 00:58:32;;;;;;;0.47;0.47;;;16.60;98.50;;;;;;4873879;29;20761;-72
2022/10/02 01:01:40;;;;;;;0.75;0.68;;;16.60;98.50;;;;;;4869663;29;20950;-73
2022/10/02 01:04:12;;;;;;;2.65;0.60;;;16.70;98.50;;;;;;4876652;29;20261;-72
2022/10/02 01:06:38;;;;;;;0.45;0.45;;;16.70;98.50;;;;;;4872118;29;21191;-72
2022/10/02 01:09:04;;;;;;;0.80;0.80;;;16.70;98.50;;;;;;4871242;29;20301;-73
2022/10/02 01:11:31;;;;;;;0.73;0.50;;;16.80;98.50;;;;;;4870007;29;20330;-72
2022/10/02 01:13:57;;;;;;;0.68;0.68;;;16.90;98.00;;;;;;4876035;29;20217;-72
2022/10/02 01:16:23;;;;;;;0.70;0.70;;;16.90;97.90;;;;;;4869486;29;20198;-73
2022/10/02 01:18:50;;;;;;;0.50;0.50;;;16.90;97.80;;;;;;4873300;29;20195;-72
2022/10/02 01:21:26;;;;;;;0.45;0.45;;;16.80;97.60;;;;;;4870837;29;20236;-73
2022/10/02 01:24:19;;;;;;;0.77;0.50;;;16.70;96.70;;;;;;4881286;29;20201;-73
2022/10/02 01:26:44;;;;;;;0.40;0.40;;;16.60;96.80;;;;;;4928126;28;20222;-72
2022/10/02 01:29:10;;;;;;;0.50;0.50;;;16.70;97.10;;;;;;4941992;28;20191;-72
2022/10/02 01:31:36;;;;;;;0.40;0.40;;;16.70;96.70;;;;;;4941491;28;20350;-72
2022/10/02 01:34:03;;;;;;;0.55;0.55;;;16.60;96.30;;;;;;4980713;28;20258;-72
2022/10/02 01:36:29;;;;;;;1.30;0.40;;;16.50;96.20;;;;;;5043829;28;20316;-72
2022/10/02 01:38:56;;;;;;;2.45;0.40;;;16.40;96.20;;;;;;5044341;28;21024;-73
2022/10/02 01:41:22;;;;;;;0.68;0.50;;;16.30;96.00;;;;;;5049403;28;20281;-72
2022/10/02 01:43:52;;;;;;;0.50;0.43;;;16.30;96.30;;;;;;5051068;28;20325;-72
2022/10/02 01:46:26;;;;;;;0.40;0.40;;;16.30;95.90;;;;;;5050358;28;20291;-72
2022/10/02 01:49:06;;;;;;;0.45;0.45;;;16.30;95.70;;;;;;5046944;28;20175;-73
2022/10/02 01:51:52;;;;;;;0.32;0.32;;;16.20;95.80;;;;;;5048476;28;20681;-72
2022/10/02 01:54:55;;;;;;;0.40;0.40;;;16.10;95.40;;;;;;5049492;28;20242;-72
2022/10/02 01:57:35;;;;;;;0.80;0.40;;;16.20;95.40;;;;;;5041013;28;20195;-72
2022/10/02 02:00:07;;;;;;;0.40;0.40;;;16.10;95.40;;;;;;5041765;28;20187;-74
2022/10/02 02:02:45;;;;;;;0.30;0.30;;;16.10;95.30;;;;;;5044883;28;20238;-72
2022/10/02 02:05:44;;;;;;;0.68;0.40;;;16.10;94.70;;;;;;5027350;28;20290;-72
2022/10/02 02:08:16;;;;;;;0.40;0.40;;;16.10;94.50;;;;;;5043076;28;20253;-73
2022/10/02 02:10:57;;;;;;;0.40;0.40;;;16.00;94.60;;;;;;5044809;28;20657;-73
2022/10/02 02:13:42;;;;;;;0.68;0.30;;;16.00;94.30;;;;;;5043129;28;20746;-73
2022/10/02 02:16:10;;;;;;;0.40;0.40;;;15.80;94.10;;;;;;5042168;28;20225;-72
2022/10/02 02:18:45;;;;;;;0.32;0.32;;;15.80;94.50;;;;;;5044201;28;20192;-72
2022/10/02 02:21:21;;;;;;;2.58;0.43;;;15.90;94.20;;;;;;5025370;28;20851;-72
2022/10/02 02:23:48;;;;;;;0.30;0.30;;;15.80;94.20;;;;;;5044226;28;20191;-72
2022/10/02 02:26:18;;;;;;;0.30;0.30;;;15.90;94.60;;;;;;5043484;28;20179;-72
2022/10/02 02:28:55;;;;;;;0.30;0.30;;;15.80;94.40;;;;;;5043351;28;20187;-73
2022/10/02 02:31:27;;;;;;;0.32;0.32;;;15.80;94.40;;;;;;5041259;28;20187;-72
2022/10/02 02:34:08;;;;;;;0.63;0.30;;;15.80;94.20;;;;;;5051711;28;20285;-72
2022/10/02 02:36:47;;;;;;;0.20;0.20;;;15.90;93.90;;;;;;5050630;28;20175;-73
2022/10/02 02:39:17;;;;;;;0.30;0.20;;;15.90;93.60;;;;;;5050131;28;20183;-72
2022/10/02 02:41:48;;;;;;;0.30;0.30;;;15.80;93.70;;;;;;5050893;28;20794;-72
2022/10/02 02:44:20;;;;;;;0.43;0.30;;;15.80;93.50;;;;;;5052861;28;20229;-72
2022/10/02 02:47:03;;;;;;;0.30;0.30;;;15.70;93.90;;;;;;5050937;28;20699;-72
2022/10/02 02:49:40;;;;;;;0.98;0.25;;;15.70;94.00;;;;;;5055616;28;21102;-72
2022/10/02 02:52:10;;;;;;;1.23;0.30;;;15.70;94.00;;;;;;5051126;28;20763;-72
2022/10/02 02:54:44;;;;;;;0.80;0.30;;;15.60;94.20;;;;;;5049444;28;20250;-72
2022/10/02 02:57:12;;;;;;;0.20;0.20;;;15.50;94.30;;;;;;5056397;28;20278;-73
2022/10/02 02:59:39;;;;;;;1.05;0.30;;;15.40;94.40;;;;;;5051899;28;20191;-72
2022/10/02 03:02:05;;;;;;;0.20;0.20;;;15.30;94.70;;;;;;5051877;28;20195;-73
2022/10/02 03:04:31;;;;;;;0.20;0.20;;;15.40;94.80;;;;;;5053258;28;20184;-72
2022/10/02 03:07:00;;;;;;;0.35;0.35;;;15.40;94.80;;;;;;5049975;28;20184;-72
2022/10/02 03:09:29;;;;;;;1.10;0.40;;;15.40;94.40;;;;;;5047185;28;20302;-73
2022/10/02 03:12:03;;;;;;;0.57;0.40;;;15.40;94.30;;;;;;5051715;28;20175;-73
2022/10/02 03:14:53;;;;;;;0.43;0.30;;;15.40;94.30;;;;;;5051251;28;20284;-73
2022/10/02 03:17:34;;;;;;;0.35;0.35;;;15.50;93.70;;;;;;5054618;28;20249;-73
2022/10/02 03:20:11;;;;;;;2.40;0.30;;;15.60;93.80;;;;;;5054442;28;20595;-73
2022/10/02 03:23:07;;;;;;;0.30;0.30;;;15.40;94.20;;;;;;5056805;28;20213;-73
2022/10/02 03:25:47;;;;;;;0.68;0.52;;;15.50;94.10;;;;;;5051161;28;20741;-72
2022/10/02 03:28:21;;;;;;;0.60;0.60;;;15.40;93.90;;;;;;5054223;28;20194;-73
2022/10/02 03:30:49;;;;;;;2.00;0.52;;;15.40;94.20;;;;;;5049213;28;20696;-73
2022/10/02 03:33:16;;;;;;;1.10;0.60;;;15.40;94.20;;;;;;5052304;28;20567;-73
2022/10/02 03:35:43;;;;;;;1.10;0.68;;;15.40;94.20;;;;;;5047956;28;20183;-73
2022/10/02 03:38:12;;;;;;;0.65;0.65;;;15.30;94.70;;;;;;5050960;28;20687;-73
2022/10/02 03:40:38;;;;;;;0.45;0.45;;;15.30;94.60;;;;;;5050577;28;20287;-73
2022/10/02 03:43:03;;;;;;;0.65;0.65;;;15.30;94.70;;;;;;5048500;28;20281;-73
2022/10/02 03:45:30;;;;;;;0.70;0.70;;;15.30;94.40;;;;;;5052660;28;20202;-73
2022/10/02 03:47:55;;;;;;;0.47;0.47;;;15.30;94.60;;;;;;5053357;28;20266;-73
2022/10/02 03:50:22;;;;;;;0.70;0.70;;;15.20;94.70;;;;;;5047718;28;20282;-73
2022/10/02 03:52:51;;;;;;;0.70;0.70;;;15.30;94.80;;;;;;5049779;28;20630;-73
2022/10/02 03:55:28;;;;;;;0.95;0.95;;;15.20;94.70;;;;;;5048106;28;20245;-73
2022/10/02 03:57:54;;;;;;;0.43;0.43;;;15.20;94.70;;;;;;5052789;28;20810;-73
2022/10/02 04:00:44;;;;;;;0.40;0.40;;;15.20;94.70;;;;;;5048290;28;20180;-72
2022/10/02 04:03:18;;;;;;;0.60;0.60;;;15.20;94.30;;;;;;5004391;28;20197;-73
2022/10/02 04:05:49;;;;;;;0.82;0.82;;;15.20;94.20;;;;;;5010150;28;20283;-73
2022/10/02 04:08:19;;;;;;;0.73;0.73;;;15.20;94.50;;;;;;5011894;28;20768;-73
2022/10/02 04:11:24;;;;;;;0.60;0.60;;;15.10;94.60;;;;;;5005494;28;20216;-73
2022/10/02 04:13:58;;;;;;;0.85;0.70;;;15.10;94.50;;;;;;4924352;29;20223;-73
2022/10/02 04:16:26;;;;;;;0.60;0.60;;;15.20;94.60;;;;;;4924337;29;20693;-72
2022/10/02 04:19:03;;;;;;;1.20;1.10;;;15.20;94.10;;;;;;4923868;29;20266;-72
2022/10/02 04:21:47;;;;;;;0.80;0.80;;;15.30;93.40;;;;;;4923473;29;20290;-72
2022/10/02 04:24:28;;;;;;;1.98;0.80;;;15.20;93.50;;;;;;4926037;29;20195;-72
2022/10/02 04:27:07;;;;;;;0.57;0.57;;;15.20;93.90;;;;;;4926557;29;20664;-73
2022/10/02 04:29:38;;;;;;;0.85;0.85;;;15.20;94.00;;;;;;4909488;29;20645;-72
2022/10/02 04:32:11;;;;;;;1.02;1.02;;;15.20;94.00;;;;;;4909875;29;20204;-73
2022/10/02 04:34:38;;;;;;;0.93;0.93;;;15.30;93.80;;;;;;4922117;29;20302;-73
2022/10/02 04:37:30;;;;;;;1.10;0.80;;;15.30;93.60;;;;;;4925056;29;20203;-72
2022/10/02 04:40:25;;;;;;;0.90;0.90;;;15.30;92.70;;;;;;4942076;28;20198;-72
2022/10/02 04:43:06;;;;;;;1.00;1.00;;;15.40;92.70;;;;;;4980696;28;20204;-72
2022/10/02 04:45:47;;;;;;;0.90;0.90;;;15.40;92.80;;;;;;4980307;28;20266;-72
2022/10/02 04:48:19;;;;;;;0.68;0.68;;;15.30;92.40;;;;;;4979855;28;20193;-72
2022/10/02 04:50:53;;;;;;;0.70;0.70;;;15.30;92.60;;;;;;5033210;28;20265;-72
2022/10/02 04:53:48;;;;;;;0.80;0.80;;;15.30;92.30;;;;;;5046634;28;20277;-74
2022/10/02 04:56:35;;;;;;;0.95;0.95;;;15.20;92.50;;;;;;5052767;28;20183;-72
2022/10/02 04:59:04;;;;;;;0.85;0.85;;;15.30;92.40;;;;;;5047512;28;20283;-72
2022/10/02 05:01:47;;;;;;;1.00;1.00;;;15.20;92.40;;;;;;5048847;28;20194;-72
2022/10/02 05:04:28;;;;;;;0.88;0.88;;;15.20;92.30;;;;;;5052695;28;20190;-72
2022/10/02 05:07:31;;;;;;;0.95;0.95;;;15.10;92.10;;;;;;5048214;28;20183;-71
2022/10/02 05:10:34;;;;;;;0.75;0.75;;;15.10;92.20;;;;;;5052420;28;20532;-73
2022/10/02 05:13:05;;;;;;;1.27;0.80;;;15.20;91.90;;;;;;5047929;28;20191;-72
2022/10/02 05:16:06;;;;;;;0.75;0.75;;;15.20;91.60;;;;;;5043889;28;20211;-74
2022/10/02 05:18:53;;;;;;;0.80;0.80;;;15.20;91.30;;;;;;5044490;28;20192;-74
2022/10/02 05:21:45;;;;;;;0.80;0.80;;;15.20;90.80;;;;;;5045574;28;20198;-74
2022/10/02 05:24:13;;;;;;;0.60;0.60;;;15.20;90.60;;;;;;5043170;28;20199;-73
2022/10/02 05:27:10;;;;;;;0.80;0.80;;;15.20;90.60;;;;;;5047669;28;20267;-73
2022/10/02 05:30:00;;;;;;;0.90;0.90;;;15.20;90.10;;;;;;5046562;28;20203;-73
2022/10/02 05:32:49;;;;;;;0.77;0.70;;;15.30;89.70;;;;;;5042748;28;20195;-73
2022/10/02 05:35:23;;;;;;;1.15;0.75;;;15.30;89.70;;;;;;5045288;28;20210;-73
2022/10/02 05:38:07;;;;;;;0.90;0.90;;;15.30;89.20;;;;;;5051910;28;20641;-74
2022/10/02 05:40:45;;;;;;;1.58;0.80;;;15.40;88.90;;;;;;5045609;28;20183;-72
2022/10/02 05:43:22;;;;;;;0.88;0.70;;;15.40;88.30;;;;;;5050436;28;20275;-74
2022/10/02 05:46:09;;;;;;;1.00;1.00;;;15.40;87.80;;;;;;5047857;28;20233;-73
2022/10/02 05:48:47;;;;;;;0.80;0.80;;;15.50;87.70;;;;;;5048501;28;20285;-73
2022/10/02 05:51:25;;;;;;;0.70;0.70;;;15.50;87.70;;;;;;5045596;28;20187;-75
2022/10/02 05:54:32;;;;;;;0.70;0.70;;;15.50;87.70;;;;;;5050340;28;20748;-74
2022/10/02 05:57:15;;;;;;;0.70;0.70;;;15.50;87.10;;;;;;5005830;28;20180;-73
2022/10/02 05:59:56;;;;;;;0.60;0.60;;;15.40;86.60;;;;;;5006149;28;20742;-73
2022/10/02 06:02:45;;;;;;;0.77;0.77;;;15.40;86.70;;;;;;5004273;28;20247;-73
2022/10/02 06:05:32;;;;;;;1.10;0.70;;;15.50;86.80;;;;;;5003748;28;20288;-72
2022/10/02 06:08:02;;;;;;;0.77;0.77;;;15.50;86.60;;;;;;4999921;28;20188;-74
2022/10/02 06:10:34;;;;;;;1.88;0.60;;;15.60;86.20;;;;;;5002941;28;20247;-74
2022/10/02 06:13:07;;;;;;;0.80;0.75;;;15.60;86.20;;;;;;5005191;28;20314;-75
2022/10/02 06:15:45;;;;;;;1.00;1.00;;;15.60;86.50;;;;;;5002997;28;20303;-74
2022/10/02 06:18:28;;;;;;;0.98;0.98;;;15.70;86.20;;;;;;5001379;28;20605;-77
2022/10/02 06:21:14;;;;;;;0.80;0.80;;;15.80;86.10;;;;;;5004579;28;20199;-75
2022/10/02 06:23:50;;;;;;;2.05;0.98;;;15.70;85.90;;;;;;5004300;28;20221;-73
2022/10/02 06:26:40;;;;;;;1.10;1.10;;;15.80;85.70;;;;;;5004310;28;20203;-73
2022/10/02 06:29:21;;;;;;;1.00;1.00;;;15.80;85.90;;;;;;5005122;28;20464;-71
2022/10/02 06:32:09;;;;;;;1.55;0.93;;;15.70;85.70;;;;;;5040151;28;20210;-73
2022/10/02 06:34:35;;;;;;;1.20;1.20;;;15.70;85.90;;;;;;5047592;28;20575;-75
2022/10/02 06:37:26;;;;;;;1.10;1.10;;;15.70;85.50;;;;;;5045356;28;21418;-76
2022/10/02 06:40:33;;;;;;;1.23;1.20;;;15.70;86.30;;;;;;5045960;28;20578;-77
2022/10/02 06:42:59;;;;;;;1.00;1.00;;;15.80;85.90;;;;;;5019014;28;20219;-77
2022/10/02 06:45:40;;;;;;;1.10;1.10;;;15.60;85.50;;;;;;5009532;28;20216;-77
2022/10/02 06:48:21;;;;;;;1.55;1.48;;;15.60;85.30;;;;;;4992934;28;20196;-77
2022/10/02 06:50:49;;;;;;;1.17;1.17;;;15.70;85.50;;;;;;5002787;28;20181;-77
2022/10/02 06:53:15;;;;;;;1.20;1.20;;;15.70;85.20;;;;;;4994349;28;20645;-77
2022/10/02 06:56:08;;;;;;;1.30;1.30;;;15.70;85.10;;;;;;5011930;28;20221;-74
2022/10/02 06:58:54;;;;;;;1.35;1.35;;;15.70;84.60;;;;;;5010029;28;20243;-77
2022/10/02 07:01:45;;;;;;;2.08;1.17;;;15.70;85.10;;;;;;4990131;28;20184;-76
2022/10/02 07:04:24;;;;;;;1.25;1.25;;;15.70;85.00;;;;;;4989728;28;20694;-79
2022/10/02 07:06:50;;;;;;;1.00;1.00;;;15.60;84.90;;;;;;5021246;28;20215;-78
2022/10/02 07:09:47;;;;;;;5.68;1.17;;;15.60;84.50;;;;;;5023406;28;20193;-78
2022/10/02 07:12:46;;;;;;;1.10;1.10;;;15.60;84.90;;;;;;5015535;28;20197;-80
2022/10/02 07:15:20;;;;;;;1.10;1.10;;;15.60;84.80;;;;;;4972585;28;20226;-78
2022/10/02 07:18:18;;;;;;;1.50;1.40;;;15.70;85.00;;;;;;4980355;28;20210;-79
2022/10/02 07:21:08;;;;;;;1.08;1.08;;;15.90;84.40;;;;;;4990151;28;20305;-72
2022/10/02 07:23:46;;;;;;;1.08;1.08;;;15.90;83.20;;;;;;4991397;28;20193;-74
2022/10/02 07:26:17;;;;;;;0.82;0.82;;;16.00;83.00;;;;;;4988967;28;20633;-75
2022/10/02 07:28:44;;;;;;;1.00;1.00;;;16.00;82.00;;;;;;4977983;28;20196;-75
2022/10/02 07:31:20;;;;;;;0.85;0.85;;;16.10;82.20;;;;;;4995490;28;20197;-75
2022/10/02 07:33:55;;;;;;;1.10;1.10;;;16.10;80.60;;;;;;4971022;28;20702;-73
2022/10/02 07:36:33;;;;;;;0.88;0.88;;;16.30;81.50;;;;;;4972966;28;20663;-75
2022/10/02 07:39:27;;;;;;;0.93;0.93;;;16.40;81.10;;;;;;4974380;28;20287;-75
2022/10/02 07:42:21;;;;;;;1.05;0.90;;;16.60;80.00;;;;;;4986108;28;20723;-74
2022/10/02 07:44:50;;;;;;;0.80;0.80;;;16.80;79.70;;;;;;4972143;28;20192;-74
2022/10/02 07:47:21;;;;;;;0.88;0.88;;;17.10;78.50;;;;;;4985891;28;21130;-74
2022/10/02 07:49:54;;;;;;;0.70;0.70;;;17.40;76.70;;;;;;4989623;28;20181;-74
2022/10/02 07:52:23;;;;;;;0.80;0.80;;;17.80;76.10;;;;;;5013861;28;20231;-74
2022/10/02 07:54:58;;;;;;;0.70;0.70;;;18.30;74.60;;;;;;5050993;28;20239;-75
2022/10/02 07:57:26;;;;;;;0.52;0.52;;;18.80;72.90;;;;;;5046056;28;20187;-76
2022/10/02 08:00:00;;;;;;;0.70;0.70;;;19.20;72.10;;;;;;5048765;28;20261;-76
2022/10/02 08:02:42;;;;;;;0.52;0.52;;;19.60;71.10;;;;;;5042692;28;20790;-75
2022/10/02 08:05:17;;;;;;;0.68;0.68;;;19.80;68.80;;;;;;5046321;28;20463;-75
2022/10/02 08:07:45;;;;;;;0.70;0.70;;;19.90;69.00;;;;;;5059133;28;20188;-75
2022/10/02 08:10:15;;;;;;;0.70;0.70;;;20.20;70.50;;;;;;5043700;28;20186;-75
2022/10/02 08:12:51;;;;;;;0.65;0.65;;;20.60;69.10;;;;;;5042768;28;21484;-74
2022/10/02 08:15:21;;;;;;;0.77;0.77;;;20.90;67.60;;;;;;5045673;28;20211;-75
2022/10/02 08:18:02;;;;;;;0.80;0.80;;;21.10;67.00;;;;;;5047694;28;20218;-75
2022/10/02 08:20:38;;;;;;;0.88;0.88;;;21.30;66.70;;;;;;5046110;28;20199;-75
2022/10/02 08:23:32;;;;;;;0.75;0.75;;;21.60;66.90;;;;;;5051715;28;20186;-75
2022/10/02 08:26:15;;;;;;;0.75;0.60;;;21.80;66.70;;;;;;5043874;28;20211;-75
2022/10/02 08:29:20;;;;;;;0.80;0.80;;;21.60;65.00;;;;;;5050225;28;20214;-75
2022/10/02 08:31:48;;;;;;;0.60;0.60;;;21.60;65.60;;;;;;5007358;28;20271;-75
2022/10/02 08:34:19;;;;;;;1.08;1.08;;;21.60;65.60;;;;;;5004842;28;20346;-75
2022/10/02 08:37:18;;;;;;;0.50;0.50;;;21.50;65.50;;;;;;5002971;28;20196;-75
2022/10/02 08:40:05;;;;;;;0.73;0.70;;;21.10;64.80;;;;;;4991829;28;20855;-75
2022/10/02 08:43:05;;;;;;;0.52;0.52;;;21.10;65.30;;;;;;5013362;28;20191;-74
2022/10/02 08:45:53;;;;;;;0.60;0.60;;;21.40;65.30;;;;;;5008539;28;20204;-75
2022/10/02 08:48:38;;;;;;;0.80;0.80;;;21.90;63.60;;;;;;4992855;28;20564;-75
2022/10/02 08:51:09;;;;;;;0.50;0.50;;;22.10;63.10;;;;;;5002421;28;20188;-75
2022/10/02 08:53:54;;;;;;;0.47;0.47;;;22.00;62.40;;;;;;5004500;28;20270;-75
2022/10/02 08:56:47;;;;;;;0.55;0.55;;;22.10;62.50;;;;;;5007741;28;20184;-75
2022/10/02 08:59:21;;;;;;;0.57;0.57;;;22.50;62.50;;;;;;5006570;28;20194;-75
2022/10/02 09:02:18;;;;;;;0.43;0.43;;;22.80;62.30;;;;;;5002453;28;20199;-74
2022/10/02 09:05:12;;;;;;;0.50;0.50;;;22.80;64.00;;;;;;5002803;28;20173;-75
2022/10/02 09:08:02;;;;;;;0.60;0.60;;;23.40;61.90;;;;;;5046461;28;20183;-74
2022/10/02 09:10:37;;;;;;;0.60;0.60;;;23.90;60.80;;;;;;5043161;28;20275;-74
2022/10/02 09:13:14;;;;;;;0.75;0.75;;;24.20;60.10;;;;;;5045726;28;20201;-75
2022/10/02 09:15:46;;;;;;;3.33;0.73;;;24.20;58.90;;;;;;5048264;28;20994;-74
2022/10/02 09:18:35;;;;;;;0.50;0.50;;;24.30;60.10;;;;;;5048612;28;20217;-73
2022/10/02 09:21:22;;;;;;;1.67;0.70;;;24.40;58.70;;;;;;4998963;28;20196;-76
2022/10/02 09:24:12;;;;;;;0.95;0.80;;;24.50;58.10;;;;;;5000069;28;20213;-76
2022/10/02 09:27:09;;;;;;;1.52;0.70;;;24.20;58.00;;;;;;4998597;28;20228;-76
2022/10/02 09:30:01;;;;;;;0.70;0.70;;;23.90;58.00;;;;;;4997099;28;20217;-76
2022/10/02 09:33:08;;;;;;;0.80;0.80;;;23.40;59.90;;;;;;5000848;28;20582;-76
2022/10/02 09:36:06;;;;;;;0.90;0.90;;;23.10;59.50;;;;;;4997771;28;20287;-76
2022/10/02 09:38:54;;;;;;;1.25;0.80;;;22.70;60.50;;;;;;5001430;28;20301;-76
2022/10/02 09:41:28;;;;;;;0.95;0.95;;;22.80;60.90;;;;;;4998422;28;20181;-76
2022/10/02 09:44:23;;;;;;;0.70;0.70;;;23.30;59.90;;;;;;5002531;28;20692;-76
2022/10/02 09:47:00;;;;;;;0.80;0.80;;;23.70;60.30;;;;;;5000300;28;20211;-76
2022/10/02 09:49:34;;;;;;;0.85;0.60;;;24.30;60.00;;;;;;5000331;28;20291;-76
2022/10/02 09:52:12;;;;;;;0.88;0.70;;;24.50;57.40;;;;;;4997383;28;20204;-74
2022/10/02 09:54:59;;;;;;;0.70;0.70;;;24.60;57.60;;;;;;4998380;28;20212;-75
2022/10/02 09:58:07;;;;;;;0.80;0.80;;;25.00;56.90;;;;;;5012106;28;20575;-74
2022/10/02 10:00:52;;;;;;;0.68;0.68;;;25.40;57.20;;;;;;5044146;28;20679;-73
2022/10/02 10:03:51;;;;;;;0.80;0.80;;;25.30;56.20;;;;;;5042642;28;20200;-74
2022/10/02 10:06:39;;;;;;;0.70;0.70;;;25.00;56.00;;;;;;5042438;28;20587;-76
2022/10/02 10:09:26;;;;;;;0.80;0.80;;;24.40;56.90;;;;;;5047716;28;20195;-77
2022/10/02 10:12:01;;;;;;;0.80;0.80;;;24.00;57.40;;;;;;5044186;28;20726;-76
2022/10/02 10:14:48;;;;;;;0.95;0.88;;;24.00;57.50;;;;;;5047755;28;20210;-78
2022/10/02 10:17:38;;;;;;;0.70;0.70;;;24.10;57.60;;;;;;5046452;28;21015;-72
2022/10/02 10:20:35;;;;;;;1.65;0.70;;;24.40;57.60;;;;;;5050409;28;20218;-72
2022/10/02 10:23:22;;;;;;;0.60;0.60;;;24.60;57.20;;;;;;5049443;28;20198;-74
2022/10/02 10:26:18;;;;;;;0.70;0.70;;;25.00;56.40;;;;;;5047969;28;20187;-74
2022/10/02 10:29:13;;;;;;;0.50;0.50;;;24.70;56.60;;;;;;5038619;28;20308;-75
2022/10/02 10:31:45;;;;;;;1.33;0.60;;;24.30;56.80;;;;;;5039969;28;20191;-72
2022/10/02 10:34:25;;;;;;;0.43;0.43;;;24.30;57.40;;;;;;5043552;28;20715;-71
2022/10/02 10:39:56;;;;;;;0.50;0.50;;;25.10;56.20;;;;;;5051291;28;20203;-73
2022/10/02 10:42:48;;;;;;;0.77;0.50;;;25.60;55.80;;;;;;5053035;28;20197;-74
2022/10/02 10:45:55;;;;;;;0.88;0.60;;;25.70;54.70;;;;;;5044806;28;20195;-75
2022/10/02 10:48:41;;;;;;;1.65;0.68;;;25.90;54.70;;;;;;5047243;28;20635;-74
2022/10/02 10:51:46;;;;;;;0.60;0.60;;;25.90;55.60;;;;;;5047356;28;20866;-74
2022/10/02 10:54:39;;;;;;;0.50;0.50;;;26.30;55.10;;;;;;5047398;28;20288;-73
2022/10/02 10:57:36;;;;;;;0.38;0.38;;;26.70;54.60;;;;;;5048651;28;20176;-75
2022/10/02 11:00:18;;;;;;;0.50;0.50;;;27.00;52.50;;;;;;5058477;28;20214;-74
2022/10/02 11:02:46;;;;;;;0.47;0.47;;;27.40;54.70;;;;;;5044552;28;20244;-73
2022/10/02 11:05:53;;;;;;;0.40;0.40;;;27.70;53.60;;;;;;5044724;28;20198;-73
2022/10/02 11:08:44;;;;;;;1.35;0.57;;;27.50;52.30;;;;;;5049225;28;20183;-75
2022/10/02 11:11:35;;;;;;;0.50;0.50;;;27.40;51.50;;;;;;5047200;28;20558;-72
2022/10/02 11:14:06;;;;;;;0.50;0.50;;;27.10;52.20;;;;;;5040952;28;20221;-73
2022/10/02 11:17:09;;;;;;;0.60;0.60;;;26.70;53.70;;;;;;5044427;28;20963;-71
2022/10/02 11:19:47;;;;;;;0.57;0.57;;;26.50;53.60;;;;;;5020208;28;20206;-72
2022/10/02 11:22:15;;;;;;;0.50;0.50;;;26.20;54.70;;;;;;5022888;28;20211;-74
2022/10/02 11:24:55;;;;;;;0.40;0.40;;;26.20;54.90;;;;;;5003449;28;20285;-71
2022/10/02 11:27:39;;;;;;;0.75;0.52;;;26.30;53.50;;;;;;5020372;28;20218;-72
2022/10/02 11:30:22;;;;;;;1.17;0.47;;;26.20;53.10;;;;;;5022993;28;20196;-71
2022/10/02 11:33:02;;;;;;;0.60;0.47;;;26.00;53.70;;;;;;5021957;28;20188;-73
2022/10/02 11:35:47;;;;;;;0.50;0.50;;;26.00;53.70;;;;;;5024067;28;20212;-73
2022/10/02 11:38:34;;;;;;;0.40;0.40;;;25.70;54.20;;;;;;5021181;28;20203;-73
2022/10/02 11:41:19;;;;;;;0.43;0.43;;;25.70;53.70;;;;;;5020662;28;20188;-73
2022/10/02 11:44:11;;;;;;;0.55;0.55;;;25.60;55.30;;;;;;5024556;28;20269;-72
2022/10/02 11:47:06;;;;;;;0.50;0.50;;;26.00;54.30;;;;;;5004619;28;20200;-73
2022/10/02 11:50:02;;;;;;;0.38;0.38;;;26.10;53.60;;;;;;5007988;28;20331;-73
2022/10/02 11:52:30;;;;;;;0.50;0.50;;;25.90;53.10;;;;;;5021388;28;20188;-73
2022/10/02 11:55:51;;;;;;;3.30;0.40;;;25.70;53.90;;;;;;5021023;28;20228;-73
2022/10/02 11:58:40;;;;;;;0.35;0.30;;;25.30;54.90;;;;;;5003747;28;20271;-72
2022/10/02 12:01:08;;;;;;;0.40;0.40;;;25.30;54.20;;;;;;5029005;28;20212;-72
2022/10/02 12:03:51;;;;;;;0.60;0.60;;;25.10;55.10;;;;;;5023857;28;20192;-72
2022/10/02 12:06:32;;;;;;;0.93;0.60;;;25.10;56.10;;;;;;5023648;28;20222;-74
2022/10/02 12:09:25;;;;;;;0.60;0.60;;;25.20;55.00;;;;;;5021690;28;20327;-73
2022/10/02 12:12:20;;;;;;;0.47;0.47;;;25.10;55.00;;;;;;5021253;28;20195;-73
2022/10/02 12:14:57;;;;;;;0.50;0.50;;;25.20;55.90;;;;;;4925164;29;20223;-73
2022/10/02 12:17:32;;;;;;;0.52;0.52;;;25.20;55.40;;;;;;4922932;29;20202;-73
2022/10/02 12:29:24;;;;;;;0.50;0.50;;;25.50;54.50;;;;;;4942427;28;20209;-73
2022/10/02 12:32:12;;;;;;;0.73;0.57;;;25.10;54.70;;;;;;4943002;28;20286;-73
2022/10/02 12:35:06;;;;;;;0.50;0.50;;;24.70;54.70;;;;;;4943729;28;20229;-74
2022/10/02 12:37:58;;;;;;;0.50;0.50;;;24.30;55.10;;;;;;4946443;28;20199;-73
2022/10/02 12:40:32;;;;;;;0.45;0.45;;;24.20;56.60;;;;;;4946000;28;20195;-74
2022/10/02 12:43:07;;;;;;;0.57;0.57;;;24.20;56.20;;;;;;4939550;28;20193;-73
2022/10/02 12:45:57;;;;;;;0.50;0.50;;;24.30;56.90;;;;;;4947880;28;20214;-74
2022/10/02 12:48:44;;;;;;;0.60;0.60;;;24.30;56.40;;;;;;4939779;28;20187;-73
2022/10/02 12:51:33;;;;;;;0.68;0.68;;;24.50;56.40;;;;;;4957904;28;20193;-74
2022/10/02 12:54:20;;;;;;;0.60;0.60;;;24.30;55.20;;;;;;4980251;28;20228;-73
2022/10/02 12:56:55;;;;;;;0.50;0.50;;;24.20;55.60;;;;;;4990014;28;20302;-73
2022/10/02 12:59:35;;;;;;;0.80;0.68;;;24.20;56.10;;;;;;4999417;28;20191;-72
2022/10/02 13:02:25;;;;;;;0.57;0.57;;;24.20;55.50;;;;;;5041290;28;20187;-72
2022/10/02 13:05:13;;;;;;;0.55;0.55;;;24.10;55.90;;;;;;5024523;28;20223;-72
2022/10/02 13:08:09;;;;;;;0.50;0.50;;;24.00;56.40;;;;;;4957250;28;20209;-73
2022/10/02 13:10:44;;;;;;;0.50;0.50;;;24.00;57.00;;;;;;4958189;28;20205;-72
2022/10/02 13:13:16;;;;;;;0.52;0.52;;;24.00;57.00;;;;;;4961185;28;20676;-72
2022/10/02 13:16:03;;;;;;;0.40;0.40;;;24.10;56.80;;;;;;4960123;28;20221;-73
2022/10/02 13:18:44;;;;;;;0.52;0.52;;;24.00;56.20;;;;;;4959354;28;20284;-73
2022/10/02 13:21:19;;;;;;;0.52;0.52;;;23.70;56.40;;;;;;4960800;28;20186;-74
2022/10/02 13:23:51;;;;;;;0.70;0.70;;;23.20;56.80;;;;;;4960108;28;20793;-74
2022/10/02 13:26:21;;;;;;;0.60;0.60;;;22.90;58.20;;;;;;4961191;28;20276;-76
2022/10/02 13:29:04;;;;;;;0.60;0.60;;;23.00;58.90;;;;;;4962757;28;20841;-74
2022/10/02 13:31:56;;;;;;;0.55;0.55;;;23.30;58.30;;;;;;4961919;28;20197;-74
2022/10/02 13:35:03;;;;;;;0.90;0.70;;;23.60;57.30;;;;;;4960137;28;20225;-72
2022/10/02 13:37:57;;;;;;;2.92;0.50;;;23.50;56.60;;;;;;4963985;28;20198;-72
2022/10/02 13:40:57;;;;;;;0.50;0.50;;;23.30;57.10;;;;;;4964590;28;20280;-72
2022/10/02 13:43:58;;;;;;;0.55;0.55;;;23.10;57.90;;;;;;4951692;28;21104;-73
2022/10/02 13:46:53;;;;;;;0.40;0.40;;;23.30;57.60;;;;;;5051754;28;20289;-72
2022/10/02 13:49:39;;;;;;;0.50;0.50;;;23.60;57.90;;;;;;5041275;28;21130;-72
2022/10/02 13:52:23;;;;;;;0.60;0.60;;;24.00;57.70;;;;;;5039622;28;20188;-72
2022/10/02 13:55:24;;;;;;;1.08;0.40;;;24.40;55.60;;;;;;5041075;28;20286;-72
2022/10/02 13:57:59;;;;;;;1.55;0.47;;;24.50;56.40;;;;;;5044173;28;20244;-74
2022/10/02 14:00:37;;;;;;;0.47;0.47;;;24.60;55.30;;;;;;5045646;28;21616;-73
2022/10/02 14:03:08;;;;;;;0.40;0.40;;;24.70;54.80;;;;;;5042417;28;20187;-74
2022/10/02 14:05:51;;;;;;;0.40;0.40;;;24.60;54.60;;;;;;5023599;28;20246;-73
2022/10/02 14:08:24;;;;;;;0.50;0.50;;;24.20;55.40;;;;;;5043185;28;20195;-74
2022/10/02 14:10:53;;;;;;;0.40;0.40;;;24.20;55.70;;;;;;5042702;28;20187;-74
2022/10/02 14:13:27;;;;;;;0.40;0.40;;;24.10;55.90;;;;;;5042097;28;20638;-73